createdAt,value
2023-04-19T03:12:38.298Z,99962.91
2023-04-19T03:15:40.983Z,99960.28
2023-04-19T03:18:43.460Z,99958.31
2023-04-19T03:21:47.003Z,99954.69
2023-04-19T03:24:49.300Z,99953.25
2023-04-19T03:27:52.620Z,99948.28
2023-04-19T03:30:58.064Z,99952.12
2023-04-19T03:34:00.555Z,99953.63
2023-04-19T03:37:03.443Z,99950.28
2023-04-19T03:40:06.927Z,99944.69
2023-04-19T03:43:09.336Z,99949.28
2023-04-19T03:46:11.867Z,99954.25
2023-04-19T03:49:14.111Z,99948.00
2023-04-19T03:52:16.885Z,99948.88
2023-04-19T03:55:20.031Z,99945.53
2023-04-19T03:58:23.204Z,99945.31
2023-04-19T04:01:27.038Z,99951.50
2023-04-19T04:04:30.085Z,99945.13
2023-04-19T04:07:32.465Z,99949.13
2023-04-19T04:10:35.836Z,99946.22
2023-04-19T04:13:38.268Z,99948.25
2023-04-19T04:16:45.368Z,99941.84
2023-04-19T04:19:47.853Z,99936.38
2023-04-19T04:22:50.572Z,99943.69
2023-04-19T04:26:05.161Z,99942.56
2023-04-19T04:29:08.659Z,99940.97
2023-04-19T04:32:11.483Z,99941.13
2023-04-19T04:35:14.314Z,99934.59
2023-04-19T04:38:24.696Z,99942.25
2023-04-19T04:41:28.043Z,99934.81
2023-04-19T04:44:30.644Z,99937.91
2023-04-19T04:47:36.038Z,99932.19
2023-04-19T04:50:38.889Z,99930.91
2023-04-19T04:53:41.529Z,99939.78
2023-04-19T04:56:44.575Z,99928.31
2023-04-19T04:59:50.275Z,99930.88
2023-04-19T05:02:53.669Z,99928.25
2023-04-19T05:05:58.245Z,99923.47
2023-04-19T05:09:00.513Z,99922.91
2023-04-19T05:12:04.891Z,99930.13
2023-04-19T05:15:07.891Z,99920.84
2023-04-19T05:18:12.516Z,99913.34
2023-04-19T05:21:15.636Z,99917.59
2023-04-19T05:24:18.785Z,99920.56
2023-04-19T05:27:21.736Z,99913.38
2023-04-19T05:30:24.466Z,99912.59
2023-04-19T05:33:27.168Z,99909.72
2023-04-19T05:36:32.207Z,99909.81
2023-04-19T05:39:34.917Z,99898.16
2023-04-19T05:42:38.698Z,99904.97
2023-04-19T05:45:40.940Z,99896.97
2023-04-19T05:48:43.465Z,99904.91
2023-04-19T05:51:46.589Z,99897.34
2023-04-19T05:54:49.486Z,99895.28
2023-04-19T05:57:51.743Z,99891.09
2023-04-19T06:00:58.860Z,99888.25
2023-04-19T06:04:01.758Z,99887.53
2023-04-19T06:07:06.213Z,99887.41
2023-04-19T06:10:10.944Z,99893.25
2023-04-19T06:13:13.828Z,99899.38
2023-04-19T06:16:16.350Z,99897.97
2023-04-19T06:19:19.009Z,99902.50
2023-04-19T06:22:21.951Z,99894.81
2023-04-19T06:25:24.666Z,99897.91
2023-04-19T06:28:27.468Z,99887.72
2023-04-19T06:31:29.952Z,99890.94
2023-04-19T06:34:32.553Z,99900.13
2023-04-19T06:37:34.960Z,99894.84
2023-04-19T06:40:39.192Z,99892.03
2023-04-19T06:43:42.875Z,99895.00
2023-04-19T06:46:45.471Z,99891.50
2023-04-19T06:49:48.892Z,99885.53
2023-04-19T06:52:51.402Z,99879.09
2023-04-19T06:56:02.577Z,99887.19
2023-04-19T06:59:05.156Z,99881.66
2023-04-19T07:02:07.899Z,99883.47
2023-04-19T07:05:10.523Z,99881.19
2023-04-19T07:08:12.881Z,99881.44
2023-04-19T07:11:15.638Z,99866.28
2023-04-19T07:14:20.949Z,99861.84
2023-04-19T07:17:23.902Z,99857.19
2023-04-19T07:20:26.081Z,99852.84
2023-04-19T07:23:28.469Z,99860.38
2023-04-19T07:26:31.602Z,99856.66
2023-04-19T07:29:37.605Z,99846.44
2023-04-19T07:32:39.993Z,99843.63
2023-04-19T07:35:42.889Z,99843.75
2023-04-19T07:38:48.014Z,99836.84
2023-04-19T07:42:04.444Z,99833.94
2023-04-19T07:45:08.909Z,99842.06
2023-04-19T07:48:11.876Z,99836.47
2023-04-19T07:51:19.484Z,99835.16
2023-04-19T07:54:24.080Z,99830.44
2023-04-19T07:57:26.392Z,99835.34
2023-04-19T08:00:30.019Z,99829.59
2023-04-19T08:03:34.386Z,99837.16
2023-04-19T08:06:48.001Z,99846.94
2023-04-19T08:09:50.592Z,99845.47
2023-04-19T08:13:05.260Z,99844.66
2023-04-19T08:19:13.556Z,99842.41
2023-04-19T08:22:18.029Z,99846.84
2023-04-19T08:25:21.364Z,99846.81
2023-04-19T08:28:23.927Z,99853.66
2023-04-19T08:31:26.044Z,99849.34
2023-04-19T08:34:28.881Z,99852.47
2023-04-19T08:37:31.056Z,99849.91
2023-04-19T08:40:33.890Z,99856.50
2023-04-19T08:43:39.260Z,99850.84
2023-04-19T08:46:44.152Z,99843.06
2023-04-19T08:52:58.645Z,99831.44
2023-04-19T08:56:18.069Z,99838.84
2023-04-19T08:59:32.984Z,99828.03
2023-04-19T09:02:48.963Z,99833.56
2023-04-19T09:05:51.689Z,99817.13
2023-04-19T09:09:28.817Z,99821.47
2023-04-19T09:12:36.828Z,99819.38
2023-04-19T09:15:41.890Z,99832.38
2023-04-19T09:19:05.335Z,99825.47
2023-04-19T09:22:14.839Z,99818.50
2023-04-19T09:28:31.829Z,99822.00
2023-04-19T09:31:51.000Z,99812.06
2023-04-19T09:34:59.905Z,99807.75
2023-04-19T09:38:06.631Z,99791.78
2023-04-19T09:41:10.403Z,99785.25
2023-04-19T09:47:30.201Z,99777.78
2023-04-19T09:50:34.214Z,99788.56
2023-04-19T09:53:44.647Z,99787.66
2023-04-19T09:56:48.446Z,99773.91
2023-04-19T09:59:50.764Z,99780.44
2023-04-19T10:02:58.479Z,99777.06
2023-04-19T10:06:10.621Z,99780.72
2023-04-19T10:09:19.385Z,99769.69
2023-04-19T10:15:49.360Z,99767.81
2023-04-19T10:18:57.425Z,99760.06
2023-04-19T10:22:00.264Z,99759.16
2023-04-19T10:25:14.248Z,99750.56
2023-04-19T10:28:17.024Z,99755.22
2023-04-19T10:31:23.902Z,99754.69
2023-04-19T10:34:43.368Z,99759.53
2023-04-19T10:38:13.028Z,99771.59
2023-04-19T10:41:24.907Z,99766.59
2023-04-19T10:44:27.637Z,99774.25
2023-04-19T10:47:44.630Z,99775.06
2023-04-19T10:51:03.213Z,99774.59
2023-04-19T10:54:08.848Z,99786.63
2023-04-19T10:57:11.669Z,99783.75
2023-04-19T11:00:21.838Z,99776.12
2023-04-19T11:03:43.289Z,99784.31
2023-04-19T11:06:52.369Z,99778.81
2023-04-19T11:09:55.396Z,99776.19
2023-04-19T11:12:58.279Z,99778.66
2023-04-19T11:16:02.046Z,99782.47
2023-04-19T11:19:05.732Z,99779.50
2023-04-19T11:22:08.162Z,99777.34
2023-04-19T11:25:19.301Z,99764.19
2023-04-19T11:28:22.055Z,99775.47
2023-04-19T11:31:25.481Z,99770.19
2023-04-19T11:34:30.002Z,99770.69
2023-04-19T11:37:35.809Z,99775.13
2023-04-19T11:40:39.184Z,99775.31
2023-04-19T11:43:45.267Z,99765.13
2023-04-19T11:47:02.235Z,99763.34
2023-04-19T11:50:28.525Z,99762.13
2023-04-19T11:53:32.634Z,99757.97
2023-04-19T11:56:34.761Z,99757.03
2023-04-19T11:59:37.419Z,99763.16
2023-04-19T12:02:41.326Z,99763.56
2023-04-19T12:05:57.655Z,99766.56
2023-04-19T12:09:00.031Z,99766.63
2023-04-19T12:12:03.346Z,99761.81
2023-04-19T12:15:06.552Z,99756.03
2023-04-19T12:18:09.385Z,99753.62
2023-04-19T12:21:24.638Z,99756.56
2023-04-19T12:24:27.032Z,99756.34
2023-04-19T12:27:29.285Z,99752.69
2023-04-19T12:30:32.188Z,99754.59
2023-04-19T12:33:34.331Z,99753.03
2023-04-19T12:36:36.757Z,99755.88
2023-04-19T12:39:38.941Z,99749.63
2023-04-19T12:42:41.367Z,99740.06
2023-04-19T12:45:44.693Z,99747.75
2023-04-19T12:48:47.120Z,99740.38
2023-04-19T12:51:49.259Z,99736.16
2023-04-19T12:54:51.813Z,99739.69
2023-04-19T12:57:54.139Z,99723.62
2023-04-19T13:00:56.721Z,99728.94
2023-04-19T13:03:59.641Z,99722.72
2023-04-19T13:07:02.426Z,99720.94
2023-04-19T13:10:05.089Z,99720.09
2023-04-19T13:13:07.570Z,99714.56
2023-04-19T13:16:09.849Z,99723.59
2023-04-19T13:19:12.289Z,99713.97
2023-04-19T13:22:15.535Z,99724.63
2023-04-19T13:25:18.047Z,99715.00
2023-04-19T13:28:20.140Z,99715.91
2023-04-19T13:31:22.545Z,99715.88
2023-04-19T13:34:24.723Z,99715.88
2023-04-19T13:37:27.174Z,99718.50
2023-04-19T13:40:29.306Z,99718.31
2023-04-19T13:43:31.844Z,99716.63
2023-04-19T13:46:34.042Z,99714.84
2023-04-19T13:49:36.500Z,99723.12
2023-04-19T13:52:38.870Z,99716.12
2023-04-19T13:55:41.408Z,99710.81
2023-04-19T13:58:43.590Z,99710.94
2023-04-19T14:01:46.084Z,99713.72
2023-04-19T14:04:48.592Z,99707.66
2023-04-19T14:07:50.820Z,99706.88
2023-04-19T14:10:53.899Z,99708.69
2023-04-19T14:13:56.218Z,99703.66
2023-04-19T14:16:58.675Z,99714.31
2023-04-19T14:20:00.812Z,99715.66
2023-04-19T14:23:03.712Z,99722.62
2023-04-19T14:26:05.872Z,99721.88
2023-04-19T14:29:08.303Z,99720.78
2023-04-19T14:32:21.595Z,99715.44
2023-04-19T14:35:27.653Z,99709.63
2023-04-19T14:38:29.854Z,99719.31
2023-04-19T14:41:32.227Z,99712.88
2023-04-19T14:44:34.365Z,99707.69
2023-04-19T14:47:36.858Z,99716.56
2023-04-19T14:50:38.998Z,99722.19
2023-04-19T14:53:41.401Z,99724.25
2023-04-19T14:56:43.646Z,99731.03
2023-04-19T14:59:46.915Z,99725.19
2023-04-19T15:02:49.866Z,99727.25
2023-04-19T15:05:52.518Z,99727.00
2023-04-19T15:08:54.783Z,99734.53
2023-04-19T15:11:57.672Z,99727.50
2023-04-19T15:14:59.964Z,99735.19
2023-04-19T15:18:02.652Z,99737.44
2023-04-19T15:21:05.501Z,99733.97
